Time;durP1;ratioP1;P1;durP2;ratioP2;P2;SDS_P1;SDS_P2;PMS_P1;PMS_P2;Temp;Humidity;BMP_temperature;BMP_pressure;BME280_temperature;BME280_humidity;BME280_pressure;Samples;Min_cycle;Max_cycle;Signal;HPM_P1;HPM_P2
2023/07/31 00:00:32;;;;;;;4.38;1.58;;;16.60;92.50;;;;;;4945053;29;20098;-73
2023/07/31 00:02:58;;;;;;;4.38;1.23;;;16.60;92.50;;;;;;4944892;29;20361;-74
2023/07/31 00:05:24;;;;;;;3.92;1.20;;;16.50;92.30;;;;;;4945126;29;20038;-74
2023/07/31 00:07:49;;;;;;;3.42;1.15;;;16.60;92.00;;;;;;4944881;29;20043;-73
2023/07/31 00:10:15;;;;;;;4.03;1.10;;;16.60;92.10;;;;;;4943452;29;20049;-72
2023/07/31 00:12:43;;;;;;;4.97;1.23;;;16.60;92.10;;;;;;4947427;29;20110;-73
2023/07/31 00:15:09;;;;;;;3.00;0.90;;;16.70;91.80;;;;;;4960766;29;20301;-74
2023/07/31 00:17:36;;;;;;;3.90;1.17;;;16.70;91.70;;;;;;4967811;29;20047;-72
2023/07/31 00:20:02;;;;;;;2.80;1.08;;;16.70;91.60;;;;;;4966800;29;20317;-72
2023/07/31 00:22:27;;;;;;;6.00;1.10;;;16.70;91.70;;;;;;4967759;29;20317;-72
2023/07/31 00:24:53;;;;;;;2.85;1.00;;;16.70;91.70;;;;;;4967551;29;20035;-74
2023/07/31 00:27:19;;;;;;;4.35;1.45;;;16.70;91.80;;;;;;4967069;28;20273;-73
2023/07/31 00:29:44;;;;;;;5.72;1.83;;;16.70;91.90;;;;;;4930829;29;20055;-72
2023/07/31 05:57:02;;;;;;;4.07;0.93;;;18.60;89.30;;;;;;5528550;23;20055;-74
2023/07/31 05:59:28;;;;;;;2.60;1.10;;;18.80;87.30;;;;;;4964418;28;20094;-72
2023/07/31 06:01:53;;;;;;;7.93;1.15;;;18.80;87.10;;;;;;4963854;29;20323;-74
2023/07/31 06:04:19;;;;;;;4.38;1.02;;;18.90;86.80;;;;;;4964401;28;20038;-72
2023/07/31 06:06:45;;;;;;;3.13;1.15;;;19.00;87.00;;;;;;4963952;29;20086;-73
2023/07/31 06:09:11;;;;;;;3.88;1.30;;;19.10;86.40;;;;;;4964333;28;20027;-74
2023/07/31 06:11:37;;;;;;;2.65;1.27;;;19.00;86.70;;;;;;4963836;28;20035;-72
2023/07/31 06:14:03;;;;;;;4.07;1.48;;;19.00;86.80;;;;;;4965115;28;20027;-72
2023/07/31 06:16:28;;;;;;;2.92;1.10;;;19.00;86.80;;;;;;4964301;28;20094;-73
2023/07/31 06:18:54;;;;;;;3.17;1.42;;;19.20;86.80;;;;;;4964909;28;20216;-74
2023/07/31 06:21:20;;;;;;;5.10;1.10;;;19.20;86.70;;;;;;4964179;28;20031;-75
2023/07/31 06:23:45;;;;;;;5.97;1.10;;;19.40;86.30;;;;;;4964767;28;20046;-73
2023/07/31 06:26:11;;;;;;;3.90;1.20;;;19.50;85.80;;;;;;4964848;28;20118;-72
2023/07/31 06:28:37;;;;;;;4.93;1.20;;;19.60;85.00;;;;;;4962477;29;20023;-72
2023/07/31 06:31:02;;;;;;;6.75;1.60;;;19.70;84.50;;;;;;4964314;28;20030;-73
2023/07/31 06:33:29;;;;;;;3.95;1.52;;;19.90;84.20;;;;;;4963379;29;20039;-74
2023/07/31 06:35:54;;;;;;;4.70;1.30;;;19.90;83.50;;;;;;4964149;28;20031;-72
2023/07/31 06:38:24;;;;;;;5.72;1.73;;;20.00;82.70;;;;;;4963479;28;20050;-75
2023/07/31 06:40:50;;;;;;;3.38;1.20;;;20.00;82.70;;;;;;4964286;28;20050;-74
2023/07/31 06:43:16;;;;;;;4.82;1.48;;;20.10;82.70;;;;;;4964243;29;20061;-72
2023/07/31 06:45:41;;;;;;;4.30;1.10;;;20.10;82.50;;;;;;4963372;29;20063;-74
2023/07/31 06:48:07;;;;;;;3.17;1.38;;;20.10;82.50;;;;;;4963916;28;20042;-74
2023/07/31 06:50:33;;;;;;;3.00;1.15;;;20.20;82.70;;;;;;4963298;29;20046;-74
2023/07/31 06:52:59;;;;;;;3.03;1.27;;;20.20;82.10;;;;;;4963833;28;20065;-73
2023/07/31 06:55:25;;;;;;;4.25;1.00;;;20.40;82.30;;;;;;4962095;29;20138;-73
2023/07/31 06:57:53;;;;;;;3.20;1.02;;;20.50;81.80;;;;;;4978379;28;20112;-71
2023/07/31 07:00:20;;;;;;;4.10;1.30;;;20.70;81.00;;;;;;4982964;28;20054;-75
2023/07/31 07:02:47;;;;;;;4.15;1.10;;;20.70;80.70;;;;;;4983196;28;20069;-74
2023/07/31 07:05:13;;;;;;;5.03;1.08;;;20.70;80.80;;;;;;4983224;28;20060;-72
2023/07/31 07:07:39;;;;;;;4.80;1.35;;;20.80;79.70;;;;;;4983024;28;20401;-73
2023/07/31 07:10:05;;;;;;;5.05;1.60;;;20.70;80.80;;;;;;4983148;28;20049;-74
2023/07/31 07:12:32;;;;;;;2.45;1.02;;;20.90;80.50;;;;;;4982804;28;20092;-74
2023/07/31 07:14:58;;;;;;;3.58;1.02;;;21.00;79.60;;;;;;4983185;28;20031;-74
2023/07/31 07:17:25;;;;;;;4.60;1.55;;;21.00;80.30;;;;;;4982757;28;20281;-75
2023/07/31 07:19:50;;;;;;;7.43;2.08;;;21.20;79.80;;;;;;4981916;28;20189;-73
2023/07/31 07:22:16;;;;;;;3.65;1.42;;;21.30;78.70;;;;;;4983209;28;20065;-74
2023/07/31 07:24:42;;;;;;;5.07;1.38;;;21.40;78.00;;;;;;4982394;28;20224;-75
2023/07/31 07:27:07;;;;;;;4.70;1.73;;;21.60;78.10;;;;;;4983007;28;20030;-74
2023/07/31 07:29:38;;;;;;;2.97;0.98;;;21.50;77.90;;;;;;4982347;28;20208;-75
2023/07/31 07:32:04;;;;;;;6.68;1.45;;;21.60;77.60;;;;;;4981757;28;20050;-74
2023/07/31 07:34:29;;;;;;;6.28;1.80;;;21.50;77.50;;;;;;4982746;28;20294;-73
2023/07/31 07:36:55;;;;;;;4.05;1.63;;;21.40;77.70;;;;;;4983654;28;20034;-73
2023/07/31 07:39:21;;;;;;;16.23;1.98;;;21.50;78.00;;;;;;4965446;28;20039;-74
2023/07/31 07:41:47;;;;;;;5.70;1.45;;;21.50;78.10;;;;;;4982880;28;20043;-75
2023/07/31 07:44:13;;;;;;;3.92;1.38;;;21.60;77.60;;;;;;4982434;28;20018;-74
2023/07/31 07:46:39;;;;;;;4.28;1.50;;;21.60;77.60;;;;;;4982750;28;20264;-74
2023/07/31 07:49:05;;;;;;;5.20;1.55;;;21.50;77.60;;;;;;4983351;28;20034;-73
2023/07/31 07:51:31;;;;;;;6.82;1.35;;;21.40;78.00;;;;;;4969763;28;20331;-75
2023/07/31 07:53:58;;;;;;;6.28;1.20;;;21.30;78.20;;;;;;4982853;28;20041;-75
2023/07/31 07:56:25;;;;;;;3.67;1.38;;;21.30;78.40;;;;;;4977576;28;20228;-75
2023/07/31 07:58:51;;;;;;;6.78;1.95;;;21.30;79.30;;;;;;4983101;28;20041;-75
2023/07/31 08:01:17;;;;;;;3.50;1.27;;;21.40;78.80;;;;;;4982910;28;20035;-75
2023/07/31 08:03:43;;;;;;;5.93;1.60;;;21.20;78.80;;;;;;4982337;28;20177;-74
2023/07/31 08:06:10;;;;;;;4.70;1.65;;;21.20;78.90;;;;;;4981818;28;20026;-75
2023/07/31 08:08:36;;;;;;;3.17;1.13;;;21.30;77.90;;;;;;4982151;28;20043;-74
2023/07/31 08:11:02;;;;;;;5.45;1.63;;;21.40;78.40;;;;;;4983008;28;20027;-74
2023/07/31 08:13:28;;;;;;;6.40;1.65;;;21.50;77.60;;;;;;4982381;28;20383;-72
2023/07/31 08:15:53;;;;;;;5.07;1.40;;;21.30;78.10;;;;;;4981396;28;20046;-75
2023/07/31 08:18:19;;;;;;;4.00;1.50;;;21.30;77.50;;;;;;4982807;28;20031;-73
2023/07/31 08:20:46;;;;;;;7.30;1.40;;;21.30;78.40;;;;;;4982692;28;20093;-74
2023/07/31 08:23:11;;;;;;;6.65;1.60;;;21.30;78.50;;;;;;4982524;28;20035;-72
2023/07/31 08:25:37;;;;;;;6.22;1.67;;;21.50;78.30;;;;;;4982385;28;20093;-74
2023/07/31 08:28:04;;;;;;;5.78;1.60;;;21.50;78.50;;;;;;4982327;28;20081;-73
2023/07/31 08:30:30;;;;;;;4.43;1.65;;;21.60;77.00;;;;;;4982024;28;20038;-72
2023/07/31 08:32:56;;;;;;;10.82;1.70;;;21.60;77.30;;;;;;4983975;28;20030;-73
2023/07/31 08:35:22;;;;;;;5.82;1.27;;;21.80;77.30;;;;;;4984813;28;20014;-72
2023/07/31 08:37:48;;;;;;;4.30;1.40;;;21.90;76.60;;;;;;4985774;28;20054;-73
2023/07/31 08:40:14;;;;;;;5.38;1.90;;;22.10;76.00;;;;;;4985644;28;20027;-73
2023/07/31 08:42:53;;;;;;;6.60;1.70;;;22.20;76.20;;;;;;4985320;28;20559;-73
2023/07/31 08:45:19;;;;;;;4.43;1.50;;;22.40;75.70;;;;;;4986035;28;20023;-71
2023/07/31 08:47:48;;;;;;;5.05;1.60;;;22.60;74.70;;;;;;4985854;28;20046;-71
2023/07/31 08:50:15;;;;;;;4.75;1.45;;;22.40;74.80;;;;;;4985938;28;20048;-71
2023/07/31 08:52:41;;;;;;;4.20;1.40;;;22.30;75.20;;;;;;4985354;28;20045;-72
2023/07/31 08:55:07;;;;;;;5.03;1.80;;;22.40;74.60;;;;;;4985934;28;20027;-73
2023/07/31 08:57:36;;;;;;;4.43;1.70;;;22.20;74.90;;;;;;4985010;28;20109;-72
2023/07/31 09:00:05;;;;;;;3.92;1.67;;;22.40;75.40;;;;;;4985757;28;20039;-73
2023/07/31 09:02:53;;;;;;;4.68;1.42;;;22.40;75.80;;;;;;4985153;28;20022;-74
2023/07/31 09:05:21;;;;;;;5.78;1.60;;;22.70;75.40;;;;;;4984569;28;20098;-71
2023/07/31 09:07:48;;;;;;;5.40;1.83;;;22.90;74.20;;;;;;4985272;28;20265;-76
2023/07/31 09:10:14;;;;;;;4.10;1.38;;;23.00;74.00;;;;;;4984852;28;20054;-76
2023/07/31 09:12:40;;;;;;;4.28;1.55;;;23.40;74.00;;;;;;4984794;28;20057;-75
2023/07/31 09:15:06;;;;;;;6.28;1.33;;;23.60;73.40;;;;;;4985792;28;20316;-73
2023/07/31 09:17:41;;;;;;;5.75;1.77;;;23.50;71.70;;;;;;4968967;28;20031;-71
2023/07/31 09:20:13;;;;;;;5.95;1.58;;;23.50;72.90;;;;;;4985284;28;20031;-72
2023/07/31 09:22:39;;;;;;;6.22;3.17;;;23.50;72.30;;;;;;4984987;28;20058;-77
2023/07/31 09:25:22;;;;;;;4.68;1.65;;;23.70;72.60;;;;;;4985142;28;20058;-72
2023/07/31 09:27:47;;;;;;;4.05;1.67;;;23.70;71.70;;;;;;4985161;28;20031;-71
2023/07/31 09:30:14;;;;;;;5.30;1.40;;;23.90;71.50;;;;;;4985198;28;20111;-72
2023/07/31 09:32:39;;;;;;;6.60;1.45;;;23.80;72.20;;;;;;4984367;28;20495;-73
2023/07/31 09:35:28;;;;;;;4.32;1.75;;;23.90;71.50;;;;;;4984881;28;20078;-71
2023/07/31 09:37:57;;;;;;;7.25;1.90;;;23.60;71.70;;;;;;4984830;28;20026;-73
2023/07/31 09:40:34;;;;;;;4.60;1.50;;;23.70;72.10;;;;;;4984062;28;20227;-73
2023/07/31 09:43:09;;;;;;;6.43;1.70;;;23.60;72.10;;;;;;4983234;28;20033;-72
2023/07/31 09:45:37;;;;;;;6.28;1.67;;;23.50;73.20;;;;;;4984276;28;20054;-70
2023/07/31 09:48:06;;;;;;;5.38;1.95;;;23.60;72.50;;;;;;4983960;28;20030;-77
2023/07/31 09:50:32;;;;;;;5.38;1.77;;;23.40;73.10;;;;;;4984187;28;20034;-73
2023/07/31 09:52:57;;;;;;;3.53;1.30;;;23.30;73.80;;;;;;4983690;28;20031;-74
2023/07/31 09:55:25;;;;;;;5.57;1.85;;;23.40;72.70;;;;;;4984108;28;20039;-72
2023/07/31 09:57:51;;;;;;;4.87;1.87;;;23.70;73.40;;;;;;4983805;28;20051;-72
2023/07/31 10:00:19;;;;;;;6.30;1.92;;;23.70;72.00;;;;;;4984683;28;20430;-73
2023/07/31 10:02:46;;;;;;;;;;;24.10;72.70;;;;;;4984898;28;20023;-77
2023/07/31 10:05:26;;;;;;;3.72;1.52;;;24.40;72.00;;;;;;4984795;28;19920;-77
2023/07/31 10:07:55;;;;;;;5.10;1.55;;;24.60;70.90;;;;;;4984557;28;20031;-75
2023/07/31 10:10:22;;;;;;;5.13;1.75;;;24.40;70.80;;;;;;4984098;28;20022;-74
2023/07/31 10:12:52;;;;;;;5.75;1.65;;;24.00;72.40;;;;;;4984799;28;20078;-74
2023/07/31 10:15:18;;;;;;;5.35;1.63;;;24.10;70.40;;;;;;4982965;28;20087;-74
2023/07/31 10:17:48;;;;;;;5.82;1.92;;;24.00;70.50;;;;;;4983862;28;20026;-73
2023/07/31 10:20:18;;;;;;;5.30;1.70;;;24.10;70.60;;;;;;4984228;28;20157;-75
2023/07/31 10:22:47;;;;;;;5.10;2.00;;;24.20;70.30;;;;;;4982436;28;20037;-74
2023/07/31 10:25:14;;;;;;;4.35;1.70;;;24.50;70.00;;;;;;4984334;28;20038;-72
2023/07/31 10:27:40;;;;;;;5.03;1.83;;;24.50;69.80;;;;;;4982823;28;20037;-72
2023/07/31 10:30:11;;;;;;;3.70;1.40;;;24.60;69.70;;;;;;4982798;28;20130;-74
2023/07/31 10:32:40;;;;;;;4.90;1.50;;;24.60;69.20;;;;;;4982455;28;20050;-74
2023/07/31 10:35:07;;;;;;;4.30;1.50;;;24.40;69.30;;;;;;4984207;28;20085;-73
2023/07/31 10:37:44;;;;;;;5.15;1.70;;;24.30;71.00;;;;;;4983462;28;20042;-73
2023/07/31 10:40:16;;;;;;;5.03;1.85;;;24.70;69.90;;;;;;4983781;28;20050;-75
2023/07/31 10:42:47;;;;;;;5.60;1.58;;;24.90;68.80;;;;;;4981592;28;20093;-73
2023/07/31 10:45:13;;;;;;;6.13;1.70;;;24.60;70.00;;;;;;4983876;28;20066;-73
2023/07/31 10:47:46;;;;;;;4.22;1.75;;;24.50;69.50;;;;;;4982236;28;20026;-73
2023/07/31 10:50:11;;;;;;;3.63;1.38;;;24.90;69.80;;;;;;4982871;28;20201;-74
2023/07/31 10:52:37;;;;;;;7.25;1.90;;;25.30;68.30;;;;;;4982773;28;20034;-74
2023/07/31 10:55:52;;;;;;;3.70;1.67;;;25.50;67.80;;;;;;4965857;28;20042;-74
2023/07/31 10:58:23;;;;;;;3.95;1.50;;;25.40;67.30;;;;;;4905051;29;20048;-74
2023/07/31 11:00:49;;;;;;;5.85;1.90;;;25.40;67.70;;;;;;4970614;28;20051;-73
2023/07/31 11:03:21;;;;;;;3.80;1.70;;;25.40;67.80;;;;;;4983436;28;20029;-73
2023/07/31 11:05:58;;;;;;;5.72;1.67;;;25.50;67.20;;;;;;4983703;28;20078;-72
2023/07/31 11:08:25;;;;;;;5.07;1.65;;;25.50;67.10;;;;;;4982606;28;20050;-73
2023/07/31 11:11:00;;;;;;;5.57;1.70;;;25.80;66.30;;;;;;4983421;28;20049;-72
2023/07/31 11:13:26;;;;;;;5.15;1.70;;;26.00;65.70;;;;;;4982943;28;20069;-74
2023/07/31 11:15:52;;;;;;;4.47;1.80;;;26.30;66.30;;;;;;4983504;28;20036;-72
2023/07/31 11:18:18;;;;;;;3.38;1.42;;;26.50;65.30;;;;;;4983503;28;20037;-71
2023/07/31 11:20:44;;;;;;;5.13;1.38;;;26.40;65.70;;;;;;4967638;28;20031;-72
2023/07/31 11:23:11;;;;;;;4.88;1.90;;;26.00;65.20;;;;;;4964185;28;20022;-74
2023/07/31 11:25:40;;;;;;;4.28;1.77;;;25.80;65.60;;;;;;4963767;28;20023;-73
2023/07/31 11:28:11;;;;;;;6.30;1.83;;;25.60;66.60;;;;;;4963696;29;20050;-74
2023/07/31 11:30:37;;;;;;;6.57;2.00;;;24.90;68.10;;;;;;4964943;28;20058;-75
2023/07/31 11:33:04;;;;;;;6.40;1.98;;;24.80;68.40;;;;;;4963655;29;20078;-74
2023/07/31 11:35:44;;;;;;;6.53;1.60;;;24.80;68.70;;;;;;4963986;28;20042;-73
2023/07/31 11:38:12;;;;;;;6.70;1.98;;;25.00;68.10;;;;;;4983116;28;20034;-74
2023/07/31 11:40:44;;;;;;;5.72;1.83;;;24.70;68.20;;;;;;4982640;28;20035;-73
2023/07/31 11:43:16;;;;;;;4.40;1.92;;;24.60;69.10;;;;;;4982871;28;20050;-72
2023/07/31 11:45:46;;;;;;;4.35;1.52;;;24.60;69.50;;;;;;4981658;28;20031;-72
2023/07/31 11:48:19;;;;;;;5.97;1.65;;;24.40;69.60;;;;;;4983052;28;20060;-75
2023/07/31 11:50:46;;;;;;;5.70;1.65;;;24.60;70.10;;;;;;4982991;28;20039;-74
2023/07/31 11:53:13;;;;;;;5.60;1.50;;;24.70;69.30;;;;;;4983334;28;20110;-72
2023/07/31 11:55:39;;;;;;;6.18;2.13;;;24.70;69.80;;;;;;4982920;28;20023;-74
2023/07/31 11:58:05;;;;;;;6.55;1.88;;;25.20;68.60;;;;;;4982659;28;20043;-74
2023/07/31 12:00:31;;;;;;;4.15;2.13;;;25.20;68.00;;;;;;4982267;28;20328;-73
2023/07/31 12:02:57;;;;;;;6.15;1.85;;;25.30;68.00;;;;;;4982681;28;20041;-74
2023/07/31 12:05:23;;;;;;;4.47;1.75;;;25.80;67.80;;;;;;4982424;28;20026;-72
2023/07/31 12:07:54;;;;;;;4.75;1.52;;;26.50;66.30;;;;;;4984737;28;20296;-74
2023/07/31 12:10:24;;;;;;;4.00;2.15;;;26.50;66.00;;;;;;4986143;28;20034;-73
2023/07/31 12:13:04;;;;;;;3.88;1.52;;;26.40;66.60;;;;;;4986465;28;20035;-72
2023/07/31 12:15:38;;;;;;;3.97;1.60;;;26.40;66.00;;;;;;4985983;28;20102;-73
2023/07/31 12:18:05;;;;;;;5.00;1.60;;;26.20;66.60;;;;;;4986968;28;20034;-71
2023/07/31 12:20:32;;;;;;;4.67;1.60;;;26.00;67.10;;;;;;4986367;28;20042;-72
2023/07/31 12:22:58;;;;;;;5.18;1.80;;;26.00;67.10;;;;;;4986655;28;20030;-72
2023/07/31 12:25:31;;;;;;;4.68;2.15;;;25.50;67.60;;;;;;4986261;28;20035;-71
2023/07/31 12:27:57;;;;;;;5.85;1.90;;;25.30;68.80;;;;;;4986370;28;20099;-72
2023/07/31 12:30:41;;;;;;;5.22;1.55;;;25.50;68.30;;;;;;4980121;28;20104;-72
2023/07/31 12:33:18;;;;;;;4.55;1.75;;;25.70;68.00;;;;;;4984975;28;20026;-73
2023/07/31 12:35:46;;;;;;;5.15;1.85;;;25.70;68.60;;;;;;4985243;28;20034;-71
2023/07/31 12:38:13;;;;;;;3.97;1.83;;;25.40;68.10;;;;;;4985956;28;20085;-72
2023/07/31 12:40:40;;;;;;;4.43;1.70;;;25.30;68.40;;;;;;4985485;28;20046;-71
2023/07/31 12:43:06;;;;;;;4.10;1.80;;;25.20;68.90;;;;;;4986146;28;20037;-70
2023/07/31 12:45:32;;;;;;;5.28;1.80;;;25.10;69.40;;;;;;4980504;28;20046;-71
2023/07/31 12:47:59;;;;;;;5.72;1.80;;;25.00;69.00;;;;;;4985999;28;20086;-69
2023/07/31 12:50:26;;;;;;;5.75;1.73;;;25.00;69.70;;;;;;4985569;28;20043;-72
2023/07/31 12:52:55;;;;;;;4.60;1.73;;;25.00;68.70;;;;;;4985938;28;20073;-72
2023/07/31 12:55:21;;;;;;;5.40;2.05;;;24.90;69.40;;;;;;4985696;28;20110;-72
2023/07/31 12:57:47;;;;;;;5.47;1.85;;;24.90;68.60;;;;;;4984338;28;20228;-70
2023/07/31 13:00:13;;;;;;;6.45;2.30;;;24.90;69.00;;;;;;4980351;28;20046;-71
2023/07/31 13:02:39;;;;;;;4.38;1.55;;;24.90;69.50;;;;;;4984778;28;20026;-71
2023/07/31 13:05:05;;;;;;;4.55;1.80;;;24.90;69.00;;;;;;4985768;28;20367;-70
2023/07/31 13:07:31;;;;;;;6.10;2.00;;;24.90;68.50;;;;;;4985541;28;20102;-71
2023/07/31 13:09:56;;;;;;;7.32;2.28;;;24.90;68.20;;;;;;4985595;28;20095;-70
2023/07/31 13:12:22;;;;;;;3.75;1.65;;;25.00;67.90;;;;;;4984920;28;20042;-72
2023/07/31 13:14:48;;;;;;;6.22;1.80;;;24.70;68.50;;;;;;4985372;28;20309;-72
2023/07/31 13:17:13;;;;;;;6.53;1.90;;;24.70;69.30;;;;;;4972650;28;20015;-70
2023/07/31 13:19:39;;;;;;;5.93;1.95;;;24.80;69.20;;;;;;4965026;28;20042;-70
2023/07/31 13:22:05;;;;;;;6.53;2.15;;;24.80;69.20;;;;;;4965193;29;20198;-71
2023/07/31 13:24:30;;;;;;;7.57;2.10;;;25.10;68.80;;;;;;4965725;29;20031;-70
2023/07/31 13:26:57;;;;;;;5.65;1.80;;;25.40;69.00;;;;;;4966050;28;20078;-71
2023/07/31 13:29:23;;;;;;;3.35;1.75;;;25.60;67.80;;;;;;4965457;28;20035;-70
2023/07/31 13:31:49;;;;;;;6.25;1.88;;;25.80;67.40;;;;;;4975480;28;20027;-72
2023/07/31 13:34:15;;;;;;;5.00;2.00;;;25.90;66.80;;;;;;4985492;28;20033;-70
2023/07/31 13:36:41;;;;;;;4.97;1.88;;;26.30;67.20;;;;;;4983941;28;20112;-70
2023/07/31 13:39:07;;;;;;;7.25;2.20;;;26.60;65.20;;;;;;4985302;28;20049;-72
2023/07/31 13:41:33;;;;;;;5.15;1.50;;;27.10;64.50;;;;;;4984930;28;20027;-69
2023/07/31 13:43:58;;;;;;;3.47;1.75;;;27.90;63.00;;;;;;4984928;28;20066;-71
2023/07/31 13:46:25;;;;;;;3.47;1.70;;;28.10;62.30;;;;;;4984961;28;20037;-72
2023/07/31 13:48:54;;;;;;;5.22;1.75;;;27.90;63.30;;;;;;4979354;28;20042;-70
2023/07/31 13:51:20;;;;;;;4.55;1.80;;;27.40;63.40;;;;;;4983765;28;20030;-72
2023/07/31 13:53:46;;;;;;;5.53;2.20;;;27.10;64.40;;;;;;4984929;28;20027;-71
2023/07/31 13:56:12;;;;;;;4.25;1.70;;;26.80;65.00;;;;;;4984591;28;20041;-71
2023/07/31 13:58:37;;;;;;;5.07;1.92;;;26.80;65.40;;;;;;4984173;28;20042;-72
2023/07/31 14:01:03;;;;;;;4.53;1.60;;;26.90;65.70;;;;;;4984679;28;20038;-69
2023/07/31 14:03:29;;;;;;;3.85;1.90;;;27.30;64.90;;;;;;4978924;28;20069;-72
2023/07/31 14:05:55;;;;;;;3.70;1.63;;;27.30;64.60;;;;;;4984806;28;20086;-71
2023/07/31 14:08:21;;;;;;;3.92;1.85;;;27.20;64.40;;;;;;4983975;28;20038;-70
2023/07/31 14:10:47;;;;;;;6.75;1.50;;;26.80;65.00;;;;;;4984359;28;20043;-72
2023/07/31 14:13:13;;;;;;;4.00;1.63;;;26.70;65.20;;;;;;4983766;28;20023;-70
2023/07/31 14:15:41;;;;;;;5.57;1.90;;;26.70;66.10;;;;;;4983734;28;20034;-71
2023/07/31 14:18:07;;;;;;;5.82;1.90;;;26.60;66.30;;;;;;4983846;28;20018;-71
2023/07/31 14:20:33;;;;;;;5.85;1.85;;;26.70;66.10;;;;;;4979999;28;20232;-72
2023/07/31 14:22:59;;;;;;;4.18;1.58;;;26.60;66.50;;;;;;4984380;28;20037;-71
2023/07/31 14:25:25;;;;;;;4.47;1.67;;;27.00;66.40;;;;;;4983952;28;20035;-72
2023/07/31 14:27:50;;;;;;;6.50;1.77;;;27.00;65.10;;;;;;4984687;28;20034;-72
2023/07/31 14:30:17;;;;;;;5.05;1.90;;;27.10;65.50;;;;;;4983307;28;20038;-70
2023/07/31 14:32:42;;;;;;;3.97;1.67;;;26.90;65.40;;;;;;4983832;28;20356;-72
2023/07/31 14:35:08;;;;;;;4.95;2.22;;;27.10;66.00;;;;;;4978195;28;20039;-74
2023/07/31 14:37:41;;;;;;;4.85;2.15;;;26.90;66.00;;;;;;4980722;28;20034;-72
2023/07/31 14:40:08;;;;;;;5.47;1.80;;;26.90;65.80;;;;;;4984008;28;20046;-73
2023/07/31 14:42:35;;;;;;;5.43;1.67;;;26.70;66.10;;;;;;4976644;28;20058;-72
2023/07/31 14:45:01;;;;;;;5.10;1.58;;;26.70;66.80;;;;;;4964371;29;20058;-71
2023/07/31 14:47:26;;;;;;;2.88;1.77;;;26.70;66.60;;;;;;4964576;29;20297;-77
2023/07/31 14:49:52;;;;;;;4.75;1.80;;;27.10;66.20;;;;;;4964304;28;20043;-71
2023/07/31 14:52:18;;;;;;;5.60;2.38;;;27.00;66.30;;;;;;4983741;28;20038;-71
2023/07/31 14:54:44;;;;;;;3.95;1.65;;;27.50;65.40;;;;;;4983717;28;20035;-72
2023/07/31 14:57:10;;;;;;;6.25;1.77;;;27.90;65.20;;;;;;4983470;28;20281;-70
2023/07/31 14:59:39;;;;;;;3.95;1.90;;;28.10;64.50;;;;;;4983019;28;20034;-70
2023/07/31 15:02:05;;;;;;;5.18;1.90;;;28.40;64.10;;;;;;4982358;28;20030;-71
2023/07/31 15:04:31;;;;;;;4.50;2.00;;;29.00;62.60;;;;;;4983242;28;20031;-70
2023/07/31 15:06:57;;;;;;;3.97;1.52;;;29.00;60.90;;;;;;4967303;28;20027;-71
2023/07/31 15:09:22;;;;;;;3.33;1.65;;;29.30;61.40;;;;;;4981761;28;20316;-71
2023/07/31 15:11:48;;;;;;;3.80;1.75;;;28.90;61.50;;;;;;4983051;28;20018;-70
2023/07/31 15:14:14;;;;;;;4.20;1.85;;;28.60;62.10;;;;;;4983748;28;20198;-71
2023/07/31 15:16:39;;;;;;;4.75;1.80;;;29.30;61.30;;;;;;4983303;28;20038;-71
2023/07/31 15:19:05;;;;;;;5.28;1.60;;;30.60;59.80;;;;;;4983597;28;20035;-72
2023/07/31 15:21:31;;;;;;;4.88;1.95;;;31.50;58.10;;;;;;4977985;28;20039;-70
2023/07/31 15:23:56;;;;;;;4.65;2.03;;;31.70;57.00;;;;;;4983999;28;20038;-72
2023/07/31 15:26:22;;;;;;;3.40;1.55;;;31.60;56.40;;;;;;4983194;28;20041;-73
2023/07/31 15:28:55;;;;;;;4.05;1.80;;;31.80;56.80;;;;;;4983314;28;20041;-72
2023/07/31 15:31:22;;;;;;;3.70;1.70;;;32.40;56.30;;;;;;4983181;28;20141;-71
2023/07/31 15:33:48;;;;;;;4.80;1.48;;;32.30;55.90;;;;;;4983438;28;20033;-71
2023/07/31 15:36:14;;;;;;;3.85;1.90;;;33.30;55.20;;;;;;4983221;28;20027;-71
2023/07/31 15:38:39;;;;;;;2.83;1.40;;;33.60;54.70;;;;;;4978016;28;20217;-72
2023/07/31 15:41:05;;;;;;;2.42;1.33;;;33.30;54.20;;;;;;4983923;28;20038;-72
2023/07/31 15:43:32;;;;;;;4.03;1.73;;;33.40;54.30;;;;;;4986567;28;20035;-71
2023/07/31 15:45:58;;;;;;;3.38;1.58;;;33.10;54.20;;;;;;4987442;28;20050;-70
2023/07/31 15:48:23;;;;;;;4.55;1.70;;;32.20;55.20;;;;;;4986848;28;20090;-72
2023/07/31 15:50:49;;;;;;;3.88;1.85;;;31.70;55.90;;;;;;4987260;28;20034;-69
2023/07/31 15:53:15;;;;;;;4.68;1.63;;;32.10;56.60;;;;;;4981934;28;20350;-70
2023/07/31 15:55:41;;;;;;;2.83;1.30;;;33.70;54.70;;;;;;4986799;28;20094;-70
2023/07/31 15:58:06;;;;;;;4.47;1.60;;;34.00;53.60;;;;;;4986883;28;20047;-70
2023/07/31 16:00:38;;;;;;;5.05;1.90;;;34.00;53.90;;;;;;4986804;28;20031;-72
2023/07/31 16:03:04;;;;;;;5.18;1.83;;;33.30;53.70;;;;;;4986893;28;20034;-70
2023/07/31 16:05:30;;;;;;;3.17;1.70;;;34.20;54.50;;;;;;4986374;28;20019;-72
2023/07/31 16:07:55;;;;;;;4.10;1.83;;;35.50;52.40;;;;;;4983945;28;20022;-70
2023/07/31 16:10:21;;;;;;;3.55;1.63;;;35.40;51.70;;;;;;4983970;28;20208;-74
2023/07/31 16:12:47;;;;;;;3.92;1.50;;;34.40;52.20;;;;;;4986789;28;20070;-71
2023/07/31 16:15:13;;;;;;;3.72;1.70;;;34.00;53.40;;;;;;4982651;28;20038;-71
2023/07/31 16:17:38;;;;;;;4.10;1.75;;;34.30;52.70;;;;;;4985489;28;20030;-73
2023/07/31 16:20:06;;;;;;;5.22;1.83;;;34.00;53.30;;;;;;4984830;28;20077;-70
2023/07/31 16:22:32;;;;;;;4.20;1.65;;;35.30;52.40;;;;;;4986354;28;20060;-74
2023/07/31 16:24:58;;;;;;;3.58;1.60;;;34.80;51.80;;;;;;4986805;28;20061;-72
2023/07/31 16:27:24;;;;;;;5.10;1.80;;;33.00;53.50;;;;;;4986478;28;20035;-72
2023/07/31 16:29:50;;;;;;;3.33;1.48;;;32.00;55.10;;;;;;4986775;28;20046;-72
2023/07/31 16:32:16;;;;;;;4.15;1.70;;;31.10;56.10;;;;;;4975873;28;20102;-69
2023/07/31 16:34:41;;;;;;;4.47;1.80;;;30.20;57.60;;;;;;4985227;28;20078;-70
2023/07/31 16:37:07;;;;;;;3.70;1.83;;;29.70;60.70;;;;;;4984944;28;20038;-71
2023/07/31 16:39:35;;;;;;;3.10;1.60;;;29.90;58.40;;;;;;4985145;28;20088;-71
2023/07/31 16:42:04;;;;;;;;;;;30.70;57.60;;;;;;4985002;28;20134;-72
2023/07/31 16:44:30;;;;;;;4.57;1.60;;;31.60;56.10;;;;;;4984427;28;19913;-69
2023/07/31 16:46:56;;;;;;;3.60;1.80;;;31.90;55.60;;;;;;4985935;28;20101;-69
2023/07/31 16:49:21;;;;;;;3.20;1.67;;;30.80;57.00;;;;;;4985755;28;20026;-72
2023/07/31 16:51:53;;;;;;;4.20;1.60;;;29.80;58.20;;;;;;4986052;28;20026;-69
2023/07/31 16:54:19;;;;;;;4.57;1.80;;;28.70;60.20;;;;;;4985144;28;20234;-72
2023/07/31 16:56:45;;;;;;;4.07;1.77;;;27.80;62.00;;;;;;4985596;28;20042;-71
2023/07/31 16:59:11;;;;;;;5.60;2.10;;;27.10;64.00;;;;;;4985963;28;20045;-71
2023/07/31 17:01:36;;;;;;;5.20;2.00;;;26.60;64.80;;;;;;4986232;28;20023;-70
2023/07/31 17:04:02;;;;;;;3.92;1.73;;;26.10;65.80;;;;;;4986040;28;20026;-75
2023/07/31 17:06:28;;;;;;;4.10;1.77;;;25.90;66.70;;;;;;4985448;28;20239;-72
2023/07/31 17:08:55;;;;;;;5.28;1.80;;;25.80;67.00;;;;;;4985998;28;20193;-71
2023/07/31 17:11:23;;;;;;;5.40;1.67;;;25.50;67.40;;;;;;4985852;28;20035;-70
2023/07/31 17:13:49;;;;;;;4.70;1.75;;;25.30;68.10;;;;;;4985612;28;20268;-71
2023/07/31 17:16:17;;;;;;;5.47;2.00;;;25.20;69.00;;;;;;4985374;28;20035;-72
2023/07/31 17:18:42;;;;;;;5.40;1.83;;;25.20;68.70;;;;;;4982587;28;20034;-69
2023/07/31 17:21:09;;;;;;;5.15;2.13;;;25.00;69.10;;;;;;4984595;28;20057;-72
2023/07/31 17:23:34;;;;;;;4.55;2.08;;;24.70;69.60;;;;;;4985187;28;20038;-73
2023/07/31 17:26:00;;;;;;;5.78;2.13;;;24.60;70.10;;;;;;4985309;28;20031;-72
2023/07/31 17:28:26;;;;;;;5.47;1.98;;;24.40;70.60;;;;;;4983631;28;20027;-72
2023/07/31 17:30:51;;;;;;;5.20;2.05;;;24.40;70.80;;;;;;4985168;28;20038;-71
2023/07/31 17:33:17;;;;;;;4.30;2.47;;;24.40;71.80;;;;;;4985291;28;20031;-72
2023/07/31 17:35:43;;;;;;;5.28;1.80;;;24.40;71.30;;;;;;4984918;28;20328;-70
2023/07/31 17:38:09;;;;;;;5.03;1.75;;;24.40;71.00;;;;;;4985295;28;20225;-71
2023/07/31 17:40:35;;;;;;;4.60;1.90;;;24.30;71.30;;;;;;4984438;28;20101;-72
2023/07/31 17:43:03;;;;;;;4.20;1.90;;;24.30;71.60;;;;;;4985136;28;20343;-72
2023/07/31 17:45:30;;;;;;;4.60;2.30;;;24.20;71.40;;;;;;4984762;28;20035;-71
2023/07/31 17:47:55;;;;;;;6.30;2.42;;;24.20;71.70;;;;;;4985756;28;20046;-71
2023/07/31 17:50:21;;;;;;;4.53;2.10;;;24.10;72.00;;;;;;4985274;28;20034;-70
2023/07/31 17:52:47;;;;;;;5.57;1.90;;;24.00;72.20;;;;;;4984592;28;20086;-71
2023/07/31 17:55:16;;;;;;;5.57;2.22;;;24.00;72.10;;;;;;4985241;28;20336;-70
2023/07/31 17:57:41;;;;;;;4.97;1.73;;;23.90;72.80;;;;;;4984674;28;20054;-70
2023/07/31 18:00:08;;;;;;;9.40;2.45;;;24.00;73.90;;;;;;4984009;28;20030;-72
2023/07/31 18:02:35;;;;;;;4.85;2.00;;;24.00;72.70;;;;;;4984071;28;20050;-72
2023/07/31 18:05:01;;;;;;;5.47;1.90;;;23.90;73.10;;;;;;4984728;28;20089;-71
2023/07/31 18:07:27;;;;;;;4.78;2.45;;;23.90;73.00;;;;;;4984277;28;20027;-73
2023/07/31 18:09:53;;;;;;;4.88;2.22;;;23.90;72.90;;;;;;4984323;28;20042;-71
2023/07/31 18:12:18;;;;;;;7.72;3.13;;;23.70;73.00;;;;;;4984660;28;20132;-71